This is the latest recevied weather packets stored in our database for station/object G0TQM-11. If no packets are shown the sender has not sent any weather packets the latest 10 day(s).
| Time | Temp. | Humidity | Pressure | Rain* | Wind** | Luminosity | Snow |
|---|---|---|---|---|---|---|---|
| 1777904713 | 23.89° C | 37% | 1013.4 hPa | - | - | - | - |
| 1777903513 | 22.22° C | 41% | 1013.4 hPa | - | - | - | - |
| 1777902313 | 21.11° C | 42% | 1013.5 hPa | - | - | - | - |
| 1777901113 | 20.56° C | 43% | 1013.4 hPa | - | - | - | - |
| 1777899913 | 19.44° C | 45% | 1013.5 hPa | - | - | - | - |
| 1777898713 | 20° C | 45% | 1013.5 hPa | - | - | - | - |
| 1777897513 | 19.44° C | 44% | 1013.4 hPa | - | - | - | - |
| 1777896699 | 18.33° C | 46% | 1013.4 hPa | - | - | - | - |
| 1777896312 | 18.33° C | 46% | 1013.4 hPa | - | - | - | - |
| 1777895112 | 17.22° C | 48% | 1013.4 hPa | - | - | - | - |
| 1777893912 | 16.67° C | 49% | 1013.4 hPa | - | - | - | - |
| 1777892712 | 16.67° C | 50% | 1013.4 hPa | - | - | - | - |
| 1777891512 | 16.67° C | 49% | 1013.3 hPa | - | - | - | - |
| 1777890312 | 17.22° C | 49% | 1013.3 hPa | - | - | - | - |
| 1777889112 | 17.78° C | 48% | 1013.2 hPa | - | - | - | - |
| 1777887911 | 17.78° C | 47% | 1013.3 hPa | - | - | - | - |
| 1777886712 | 17.22° C | 48% | 1013.2 hPa | - | - | - | - |
| 1777885511 | 16.67° C | 50% | 1013.2 hPa | - | - | - | - |
| 1777884311 | 16.11° C | 51% | 1013 hPa | - | - | - | - |
| 1777883111 | 15° C | 52% | 1012.9 hPa | - | - | - | - |
| 1777881911 | 14.44° C | 53% | 1012.8 hPa | - | - | - | - |
| 1777880711 | 14.44° C | 50% | 1012.6 hPa | - | - | - | - |
| 1777879510 | 13.33° C | 49% | 1012.5 hPa | - | - | - | - |
| 1777878310 | 12.78° C | 50% | 1012.4 hPa | - | - | - | - |
| 1777877110 | 11.67° C | 52% | 1012.2 hPa | - | - | - | - |
* Rain since midnight (hover to see other rain measurements)
** Current wind speed in m/s (hover to see current wind gust speed)